sensor_id;sensor_type;location;lat;lon;timestamp;temperature;humidity
17128;DHT22;8679;50.842;4.322;2022-10-16T00:00:28;14.60;99.90
17128;DHT22;8679;50.842;4.322;2022-10-16T00:02:55;14.60;99.90
17128;DHT22;8679;50.842;4.322;2022-10-16T00:05:21;14.60;99.90
17128;DHT22;8679;50.842;4.322;2022-10-16T00:07:46;14.60;99.90
17128;DHT22;8679;50.842;4.322;2022-10-16T00:10:12;14.60;99.90
17128;DHT22;8679;50.842;4.322;2022-10-16T00:12:38;14.60;99.90
17128;DHT22;8679;50.842;4.322;2022-10-16T00:15:04;14.60;99.90
17128;DHT22;8679;50.842;4.322;2022-10-16T00:17:30;14.50;99.90
17128;DHT22;8679;50.842;4.322;2022-10-16T00:19:55;14.50;99.90
17128;DHT22;8679;50.842;4.322;2022-10-16T00:22:22;14.50;99.90
17128;DHT22;8679;50.842;4.322;2022-10-16T00:24:48;14.50;99.90
17128;DHT22;8679;50.842;4.322;2022-10-16T00:27:13;14.50;99.90
17128;DHT22;8679;50.842;4.322;2022-10-16T00:29:39;14.50;99.90
17128;DHT22;8679;50.842;4.322;2022-10-16T00:32:05;14.40;99.90
17128;DHT22;8679;50.842;4.322;2022-10-16T00:34:30;14.40;99.90
17128;DHT22;8679;50.842;4.322;2022-10-16T00:36:56;14.40;99.90
17128;DHT22;8679;50.842;4.322;2022-10-16T00:39:22;14.40;99.90
17128;DHT22;8679;50.842;4.322;2022-10-16T00:41:48;14.40;99.90
17128;DHT22;8679;50.842;4.322;2022-10-16T00:44:46;14.40;99.90
17128;DHT22;8679;50.842;4.322;2022-10-16T00:47:21;14.40;99.90
17128;DHT22;8679;50.842;4.322;2022-10-16T00:49:50;14.40;99.90
17128;DHT22;8679;50.842;4.322;2022-10-16T00:52:17;14.30;99.90
17128;DHT22;8679;50.842;4.322;2022-10-16T00:54:44;14.30;99.90
17128;DHT22;8679;50.842;4.322;2022-10-16T00:57:11;14.30;99.90
17128;DHT22;8679;50.842;4.322;2022-10-16T00:59:39;14.30;99.90
17128;DHT22;8679;50.842;4.322;2022-10-16T01:02:08;14.20;99.90
17128;DHT22;8679;50.842;4.322;2022-10-16T01:04:40;14.20;99.90
17128;DHT22;8679;50.842;4.322;2022-10-16T01:10:19;14.20;99.90
17128;DHT22;8679;50.842;4.322;2022-10-16T01:13:17;14.20;99.90
17128;DHT22;8679;50.842;4.322;2022-10-16T01:18:36;14.20;99.90
17128;DHT22;8679;50.842;4.322;2022-10-16T01:21:06;14.10;99.90
17128;DHT22;8679;50.842;4.322;2022-10-16T01:32:23;14.10;99.90
17128;DHT22;8679;50.842;4.322;2022-10-16T01:34:59;14.10;99.90
17128;DHT22;8679;50.842;4.322;2022-10-16T01:37:50;14.10;99.90
17128;DHT22;8679;50.842;4.322;2022-10-16T01:40:19;14.10;99.90
17128;DHT22;8679;50.842;4.322;2022-10-16T01:42:54;14.10;99.90
17128;DHT22;8679;50.842;4.322;2022-10-16T01:45:21;14.10;99.90
17128;DHT22;8679;50.842;4.322;2022-10-16T01:47:48;14.10;99.90
17128;DHT22;8679;50.842;4.322;2022-10-16T01:50:16;14.10;99.90
17128;DHT22;8679;50.842;4.322;2022-10-16T01:52:45;14.10;99.90
17128;DHT22;8679;50.842;4.322;2022-10-16T01:55:17;14.10;99.90
17128;DHT22;8679;50.842;4.322;2022-10-16T01:57:47;14.00;99.90
17128;DHT22;8679;50.842;4.322;2022-10-16T02:00:17;14.00;99.90
17128;DHT22;8679;50.842;4.322;2022-10-16T02:02:47;14.00;99.90
17128;DHT22;8679;50.842;4.322;2022-10-16T02:05:48;14.00;99.90
17128;DHT22;8679;50.842;4.322;2022-10-16T02:08:16;14.00;99.90
17128;DHT22;8679;50.842;4.322;2022-10-16T02:10:41;14.00;99.90
17128;DHT22;8679;50.842;4.322;2022-10-16T02:13:11;14.00;99.90
17128;DHT22;8679;50.842;4.322;2022-10-16T02:15:39;14.00;99.90
17128;DHT22;8679;50.842;4.322;2022-10-16T02:18:05;14.00;99.90
17128;DHT22;8679;50.842;4.322;2022-10-16T02:20:43;14.00;99.90
17128;DHT22;8679;50.842;4.322;2022-10-16T02:23:12;13.90;99.90
17128;DHT22;8679;50.842;4.322;2022-10-16T02:25:43;14.00;99.90
17128;DHT22;8679;50.842;4.322;2022-10-16T02:28:12;14.00;99.90
17128;DHT22;8679;50.842;4.322;2022-10-16T02:30:59;13.90;99.90
17128;DHT22;8679;50.842;4.322;2022-10-16T02:33:26;14.00;99.90
17128;DHT22;8679;50.842;4.322;2022-10-16T02:35:54;14.00;99.90
17128;DHT22;8679;50.842;4.322;2022-10-16T02:38:21;14.00;99.90
17128;DHT22;8679;50.842;4.322;2022-10-16T02:40:48;14.00;99.90
17128;DHT22;8679;50.842;4.322;2022-10-16T02:43:13;13.90;99.90
17128;DHT22;8679;50.842;4.322;2022-10-16T02:45:39;13.90;99.90
17128;DHT22;8679;50.842;4.322;2022-10-16T02:48:05;13.90;99.90
17128;DHT22;8679;50.842;4.322;2022-10-16T02:50:31;13.90;99.90
17128;DHT22;8679;50.842;4.322;2022-10-16T02:52:56;13.80;99.90
17128;DHT22;8679;50.842;4.322;2022-10-16T02:55:22;13.90;99.90
17128;DHT22;8679;50.842;4.322;2022-10-16T02:57:48;13.90;99.90
17128;DHT22;8679;50.842;4.322;2022-10-16T03:00:15;13.90;99.90
17128;DHT22;8679;50.842;4.322;2022-10-16T03:02:41;13.90;99.90
17128;DHT22;8679;50.842;4.322;2022-10-16T03:05:08;13.90;99.90
17128;DHT22;8679;50.842;4.322;2022-10-16T03:07:34;13.90;99.90
17128;DHT22;8679;50.842;4.322;2022-10-16T03:09:59;13.90;99.90
17128;DHT22;8679;50.842;4.322;2022-10-16T03:12:29;13.90;99.90
17128;DHT22;8679;50.842;4.322;2022-10-16T03:14:58;13.90;99.90
17128;DHT22;8679;50.842;4.322;2022-10-16T03:17:24;13.90;99.90
17128;DHT22;8679;50.842;4.322;2022-10-16T03:19:50;14.00;99.90
17128;DHT22;8679;50.842;4.322;2022-10-16T03:22:15;13.90;99.90
17128;DHT22;8679;50.842;4.322;2022-10-16T03:24:41;13.90;99.90
17128;DHT22;8679;50.842;4.322;2022-10-16T03:27:07;13.90;99.90
17128;DHT22;8679;50.842;4.322;2022-10-16T03:29:32;13.90;99.90
17128;DHT22;8679;50.842;4.322;2022-10-16T03:31:59;13.90;99.90
17128;DHT22;8679;50.842;4.322;2022-10-16T03:34:24;14.00;99.90
17128;DHT22;8679;50.842;4.322;2022-10-16T03:36:51;13.90;99.90
17128;DHT22;8679;50.842;4.322;2022-10-16T03:39:17;13.90;99.90
17128;DHT22;8679;50.842;4.322;2022-10-16T03:41:43;13.90;99.90
17128;DHT22;8679;50.842;4.322;2022-10-16T03:44:09;13.90;99.90
17128;DHT22;8679;50.842;4.322;2022-10-16T03:46:34;13.90;99.90
17128;DHT22;8679;50.842;4.322;2022-10-16T03:49:00;13.90;99.90
17128;DHT22;8679;50.842;4.322;2022-10-16T03:51:25;13.90;99.90
17128;DHT22;8679;50.842;4.322;2022-10-16T03:53:51;13.90;99.90
17128;DHT22;8679;50.842;4.322;2022-10-16T03:56:17;13.90;99.90
17128;DHT22;8679;50.842;4.322;2022-10-16T03:58:42;14.00;99.90
17128;DHT22;8679;50.842;4.322;2022-10-16T04:01:08;14.00;99.90
17128;DHT22;8679;50.842;4.322;2022-10-16T04:03:34;14.00;99.90
17128;DHT22;8679;50.842;4.322;2022-10-16T04:05:59;14.00;99.90
17128;DHT22;8679;50.842;4.322;2022-10-16T04:08:25;14.00;99.90
17128;DHT22;8679;50.842;4.322;2022-10-16T04:10:51;14.00;99.90
17128;DHT22;8679;50.842;4.322;2022-10-16T04:13:16;14.00;99.90
17128;DHT22;8679;50.842;4.322;2022-10-16T04:15:42;14.00;99.90
17128;DHT22;8679;50.842;4.322;2022-10-16T04:18:08;14.00;99.90
17128;DHT22;8679;50.842;4.322;2022-10-16T04:20:34;14.00;99.90
17128;DHT22;8679;50.842;4.322;2022-10-16T04:22:59;14.00;99.90
17128;DHT22;8679;50.842;4.322;2022-10-16T04:25:25;14.00;99.90
17128;DHT22;8679;50.842;4.322;2022-10-16T04:27:53;14.00;99.90
17128;DHT22;8679;50.842;4.322;2022-10-16T04:30:19;14.00;99.90
17128;DHT22;8679;50.842;4.322;2022-10-16T04:32:52;14.00;99.90
17128;DHT22;8679;50.842;4.322;2022-10-16T04:35:19;14.00;99.90
17128;DHT22;8679;50.842;4.322;2022-10-16T04:37:45;14.00;99.90
17128;DHT22;8679;50.842;4.322;2022-10-16T04:40:11;14.00;99.90
17128;DHT22;8679;50.842;4.322;2022-10-16T04:42:37;13.90;99.90
17128;DHT22;8679;50.842;4.322;2022-10-16T04:45:03;13.90;99.90
17128;DHT22;8679;50.842;4.322;2022-10-16T04:47:29;13.90;99.90
17128;DHT22;8679;50.842;4.322;2022-10-16T04:49:55;14.00;99.90
17128;DHT22;8679;50.842;4.322;2022-10-16T04:52:21;13.90;99.90
17128;DHT22;8679;50.842;4.322;2022-10-16T04:54:49;13.90;99.90
17128;DHT22;8679;50.842;4.322;2022-10-16T04:57:16;13.80;99.90
17128;DHT22;8679;50.842;4.322;2022-10-16T04:59:42;13.80;99.90
17128;DHT22;8679;50.842;4.322;2022-10-16T05:02:07;13.80;99.90
17128;DHT22;8679;50.842;4.322;2022-10-16T05:04:33;13.80;99.90
17128;DHT22;8679;50.842;4.322;2022-10-16T05:06:58;13.80;99.90
17128;DHT22;8679;50.842;4.322;2022-10-16T05:09:24;13.70;99.90
17128;DHT22;8679;50.842;4.322;2022-10-16T05:11:50;13.70;99.90
17128;DHT22;8679;50.842;4.322;2022-10-16T05:14:15;13.70;99.90
17128;DHT22;8679;50.842;4.322;2022-10-16T05:16:41;13.80;99.90
17128;DHT22;8679;50.842;4.322;2022-10-16T05:19:07;13.70;99.90
17128;DHT22;8679;50.842;4.322;2022-10-16T05:21:32;13.70;99.90
17128;DHT22;8679;50.842;4.322;2022-10-16T05:23:58;13.70;99.90
17128;DHT22;8679;50.842;4.322;2022-10-16T05:26:24;13.60;99.90
17128;DHT22;8679;50.842;4.322;2022-10-16T05:28:50;13.70;99.90
17128;DHT22;8679;50.842;4.322;2022-10-16T05:31:15;13.60;99.90
17128;DHT22;8679;50.842;4.322;2022-10-16T05:33:41;13.70;99.90
17128;DHT22;8679;50.842;4.322;2022-10-16T05:36:08;13.60;99.90
17128;DHT22;8679;50.842;4.322;2022-10-16T05:38:36;13.60;99.90
17128;DHT22;8679;50.842;4.322;2022-10-16T05:41:03;13.60;99.90
17128;DHT22;8679;50.842;4.322;2022-10-16T05:43:29;13.70;99.90
17128;DHT22;8679;50.842;4.322;2022-10-16T05:46:04;13.70;99.90
17128;DHT22;8679;50.842;4.322;2022-10-16T05:48:31;13.70;99.90
17128;DHT22;8679;50.842;4.322;2022-10-16T05:50:58;13.60;99.90
17128;DHT22;8679;50.842;4.322;2022-10-16T05:53:24;13.70;99.90
17128;DHT22;8679;50.842;4.322;2022-10-16T05:55:57;13.60;99.90
17128;DHT22;8679;50.842;4.322;2022-10-16T05:58:24;13.60;99.90
17128;DHT22;8679;50.842;4.322;2022-10-16T06:01:01;13.70;99.90
17128;DHT22;8679;50.842;4.322;2022-10-16T06:03:27;13.60;99.90
17128;DHT22;8679;50.842;4.322;2022-10-16T06:05:53;13.60;99.90
17128;DHT22;8679;50.842;4.322;2022-10-16T06:08:20;13.60;99.90
17128;DHT22;8679;50.842;4.322;2022-10-16T06:10:47;13.70;99.90
17128;DHT22;8679;50.842;4.322;2022-10-16T06:13:13;13.70;99.90
17128;DHT22;8679;50.842;4.322;2022-10-16T06:15:41;13.70;99.90
17128;DHT22;8679;50.842;4.322;2022-10-16T06:18:08;13.80;99.90
17128;DHT22;8679;50.842;4.322;2022-10-16T06:20:34;13.80;99.90
17128;DHT22;8679;50.842;4.322;2022-10-16T06:23:00;13.80;99.90
17128;DHT22;8679;50.842;4.322;2022-10-16T06:25:26;13.80;99.90
17128;DHT22;8679;50.842;4.322;2022-10-16T06:27:51;13.80;99.90
17128;DHT22;8679;50.842;4.322;2022-10-16T06:30:17;13.80;99.90
17128;DHT22;8679;50.842;4.322;2022-10-16T06:32:42;13.80;99.90
17128;DHT22;8679;50.842;4.322;2022-10-16T06:35:08;13.80;99.90
17128;DHT22;8679;50.842;4.322;2022-10-16T06:37:34;13.80;99.90
17128;DHT22;8679;50.842;4.322;2022-10-16T06:39:59;13.80;99.90
17128;DHT22;8679;50.842;4.322;2022-10-16T06:42:25;13.80;99.90
17128;DHT22;8679;50.842;4.322;2022-10-16T06:44:51;13.90;99.90
17128;DHT22;8679;50.842;4.322;2022-10-16T06:47:16;13.90;99.90
17128;DHT22;8679;50.842;4.322;2022-10-16T06:49:42;14.00;99.90
17128;DHT22;8679;50.842;4.322;2022-10-16T06:52:08;14.00;99.90
17128;DHT22;8679;50.842;4.322;2022-10-16T06:54:34;14.10;99.90
17128;DHT22;8679;50.842;4.322;2022-10-16T06:56:59;14.10;99.90
17128;DHT22;8679;50.842;4.322;2022-10-16T06:59:26;14.10;99.90
17128;DHT22;8679;50.842;4.322;2022-10-16T07:01:52;14.10;99.90
17128;DHT22;8679;50.842;4.322;2022-10-16T07:04:17;14.20;99.90
17128;DHT22;8679;50.842;4.322;2022-10-16T07:06:43;14.20;99.90
17128;DHT22;8679;50.842;4.322;2022-10-16T07:09:10;14.30;99.90
17128;DHT22;8679;50.842;4.322;2022-10-16T07:11:37;14.30;99.90
17128;DHT22;8679;50.842;4.322;2022-10-16T07:14:04;14.30;99.90
17128;DHT22;8679;50.842;4.322;2022-10-16T07:16:32;14.40;99.90
17128;DHT22;8679;50.842;4.322;2022-10-16T07:19:00;14.30;99.90
17128;DHT22;8679;50.842;4.322;2022-10-16T07:21:28;14.30;99.90
17128;DHT22;8679;50.842;4.322;2022-10-16T07:23:56;14.30;99.90
17128;DHT22;8679;50.842;4.322;2022-10-16T07:26:23;14.30;99.90
17128;DHT22;8679;50.842;4.322;2022-10-16T07:28:50;14.40;99.90
17128;DHT22;8679;50.842;4.322;2022-10-16T07:31:17;14.40;99.90
17128;DHT22;8679;50.842;4.322;2022-10-16T07:33:43;14.40;99.90
17128;DHT22;8679;50.842;4.322;2022-10-16T07:36:11;14.50;99.90
17128;DHT22;8679;50.842;4.322;2022-10-16T07:38:37;14.50;99.90
17128;DHT22;8679;50.842;4.322;2022-10-16T07:41:06;14.60;99.90
17128;DHT22;8679;50.842;4.322;2022-10-16T07:43:32;14.60;99.90
17128;DHT22;8679;50.842;4.322;2022-10-16T07:45:58;14.60;99.90
17128;DHT22;8679;50.842;4.322;2022-10-16T07:48:26;14.60;99.90
17128;DHT22;8679;50.842;4.322;2022-10-16T07:50:52;14.70;99.90
17128;DHT22;8679;50.842;4.322;2022-10-16T07:53:18;14.70;99.90
17128;DHT22;8679;50.842;4.322;2022-10-16T07:55:43;14.70;99.90
17128;DHT22;8679;50.842;4.322;2022-10-16T07:58:09;14.80;99.90
17128;DHT22;8679;50.842;4.322;2022-10-16T08:00:36;14.80;99.90
17128;DHT22;8679;50.842;4.322;2022-10-16T08:03:03;14.80;99.90
17128;DHT22;8679;50.842;4.322;2022-10-16T08:05:29;14.90;99.90
17128;DHT22;8679;50.842;4.322;2022-10-16T08:07:56;14.90;99.90
17128;DHT22;8679;50.842;4.322;2022-10-16T08:10:24;15.00;99.90
17128;DHT22;8679;50.842;4.322;2022-10-16T08:12:51;15.10;99.90
17128;DHT22;8679;50.842;4.322;2022-10-16T08:15:17;15.10;99.90
17128;DHT22;8679;50.842;4.322;2022-10-16T08:17:43;15.20;99.90
17128;DHT22;8679;50.842;4.322;2022-10-16T08:20:09;15.20;99.90
17128;DHT22;8679;50.842;4.322;2022-10-16T08:22:35;15.30;99.90
17128;DHT22;8679;50.842;4.322;2022-10-16T08:25:00;15.30;99.90
17128;DHT22;8679;50.842;4.322;2022-10-16T08:27:31;15.30;99.90
17128;DHT22;8679;50.842;4.322;2022-10-16T08:29:57;15.40;99.90
17128;DHT22;8679;50.842;4.322;2022-10-16T08:32:23;15.50;99.90
17128;DHT22;8679;50.842;4.322;2022-10-16T08:34:48;15.50;99.90
17128;DHT22;8679;50.842;4.322;2022-10-16T08:37:14;15.60;99.90
17128;DHT22;8679;50.842;4.322;2022-10-16T08:39:40;15.60;99.90
17128;DHT22;8679;50.842;4.322;2022-10-16T08:47:26;15.70;99.90
17128;DHT22;8679;50.842;4.322;2022-10-16T08:49:58;15.70;99.90
17128;DHT22;8679;50.842;4.322;2022-10-16T08:52:32;15.70;99.90
17128;DHT22;8679;50.842;4.322;2022-10-16T08:54:59;15.80;99.90
17128;DHT22;8679;50.842;4.322;2022-10-16T08:57:26;15.80;99.90
17128;DHT22;8679;50.842;4.322;2022-10-16T08:59:52;15.80;99.90
17128;DHT22;8679;50.842;4.322;2022-10-16T09:05:30;15.90;99.90
17128;DHT22;8679;50.842;4.322;2022-10-16T09:09:11;15.90;99.90
17128;DHT22;8679;50.842;4.322;2022-10-16T09:11:46;16.00;99.90
17128;DHT22;8679;50.842;4.322;2022-10-16T09:20:26;16.20;99.90
17128;DHT22;8679;50.842;4.322;2022-10-16T09:23:45;16.20;99.90
17128;DHT22;8679;50.842;4.322;2022-10-16T09:25:49;16.20;99.90
17128;DHT22;8679;50.842;4.322;2022-10-16T09:28:18;16.30;99.90
17128;DHT22;8679;50.842;4.322;2022-10-16T09:30:45;16.40;99.90
17128;DHT22;8679;50.842;4.322;2022-10-16T09:33:12;16.40;99.90
17128;DHT22;8679;50.842;4.322;2022-10-16T09:35:47;16.40;99.90
17128;DHT22;8679;50.842;4.322;2022-10-16T09:38:29;16.50;99.90
17128;DHT22;8679;50.842;4.322;2022-10-16T09:40:57;16.50;99.90
17128;DHT22;8679;50.842;4.322;2022-10-16T09:43:28;16.60;99.90
17128;DHT22;8679;50.842;4.322;2022-10-16T09:45:57;16.60;99.90
17128;DHT22;8679;50.842;4.322;2022-10-16T09:48:31;16.60;99.90
17128;DHT22;8679;50.842;4.322;2022-10-16T09:51:01;16.70;99.90
17128;DHT22;8679;50.842;4.322;2022-10-16T09:56:05;16.90;99.90
17128;DHT22;8679;50.842;4.322;2022-10-16T09:58:32;16.90;99.90
17128;DHT22;8679;50.842;4.322;2022-10-16T10:00:59;17.00;99.90
17128;DHT22;8679;50.842;4.322;2022-10-16T10:03:45;17.00;99.90
17128;DHT22;8679;50.842;4.322;2022-10-16T10:06:20;17.20;99.90
17128;DHT22;8679;50.842;4.322;2022-10-16T10:11:47;17.30;99.90
17128;DHT22;8679;50.842;4.322;2022-10-16T10:19:41;17.30;99.90
17128;DHT22;8679;50.842;4.322;2022-10-16T10:31:02;17.60;99.90
17128;DHT22;8679;50.842;4.322;2022-10-16T10:36:38;17.60;99.90
17128;DHT22;8679;50.842;4.322;2022-10-16T10:42:08;17.70;99.90
17128;DHT22;8679;50.842;4.322;2022-10-16T10:55:17;18.20;99.90
17128;DHT22;8679;50.842;4.322;2022-10-16T10:57:51;18.40;99.90
17128;DHT22;8679;50.842;4.322;2022-10-16T11:05:52;18.90;99.90
17128;DHT22;8679;50.842;4.322;2022-10-16T11:08:41;19.00;99.90
17128;DHT22;8679;50.842;4.322;2022-10-16T11:11:13;19.10;99.90
17128;DHT22;8679;50.842;4.322;2022-10-16T11:13:46;19.40;99.90
17128;DHT22;8679;50.842;4.322;2022-10-16T11:22:09;19.10;99.90
17128;DHT22;8679;50.842;4.322;2022-10-16T11:24:54;19.00;99.90
17128;DHT22;8679;50.842;4.322;2022-10-16T11:27:36;19.20;99.90
17128;DHT22;8679;50.842;4.322;2022-10-16T11:30:08;19.80;99.90
17128;DHT22;8679;50.842;4.322;2022-10-16T11:40:43;19.90;99.90
17128;DHT22;8679;50.842;4.322;2022-10-16T11:43:22;20.50;99.90
17128;DHT22;8679;50.842;4.322;2022-10-16T11:45:52;20.40;99.90
17128;DHT22;8679;50.842;4.322;2022-10-16T11:49:08;20.20;99.90
17128;DHT22;8679;50.842;4.322;2022-10-16T11:51:48;19.90;99.90
17128;DHT22;8679;50.842;4.322;2022-10-16T11:54:22;19.70;99.90
17128;DHT22;8679;50.842;4.322;2022-10-16T11:56:52;19.80;99.90
17128;DHT22;8679;50.842;4.322;2022-10-16T11:59:48;19.70;99.90
17128;DHT22;8679;50.842;4.322;2022-10-16T12:05:18;19.90;99.90
17128;DHT22;8679;50.842;4.322;2022-10-16T12:10:28;20.20;99.90
17128;DHT22;8679;50.842;4.322;2022-10-16T12:12:57;20.30;99.90
17128;DHT22;8679;50.842;4.322;2022-10-16T12:15:33;20.50;99.90
17128;DHT22;8679;50.842;4.322;2022-10-16T12:18:00;20.40;99.90
17128;DHT22;8679;50.842;4.322;2022-10-16T12:20:31;20.00;99.90
17128;DHT22;8679;50.842;4.322;2022-10-16T12:23:01;20.00;99.90
17128;DHT22;8679;50.842;4.322;2022-10-16T12:28:18;19.70;99.90
17128;DHT22;8679;50.842;4.322;2022-10-16T12:31:00;19.80;99.90
17128;DHT22;8679;50.842;4.322;2022-10-16T12:35:59;20.30;99.90
17128;DHT22;8679;50.842;4.322;2022-10-16T12:38:45;20.50;99.90
17128;DHT22;8679;50.842;4.322;2022-10-16T12:41:12;20.40;99.90
17128;DHT22;8679;50.842;4.322;2022-10-16T12:43:42;20.40;99.90
17128;DHT22;8679;50.842;4.322;2022-10-16T12:48:34;20.10;99.90
17128;DHT22;8679;50.842;4.322;2022-10-16T12:51:24;19.90;99.90
17128;DHT22;8679;50.842;4.322;2022-10-16T12:54:13;19.70;99.90
17128;DHT22;8679;50.842;4.322;2022-10-16T12:56:49;19.70;99.90
17128;DHT22;8679;50.842;4.322;2022-10-16T13:05:19;19.80;99.90
17128;DHT22;8679;50.842;4.322;2022-10-16T13:22:17;20.10;99.90
17128;DHT22;8679;50.842;4.322;2022-10-16T13:25:05;20.10;99.90
17128;DHT22;8679;50.842;4.322;2022-10-16T13:27:52;20.20;99.90
17128;DHT22;8679;50.842;4.322;2022-10-16T13:30:25;20.30;99.90
17128;DHT22;8679;50.842;4.322;2022-10-16T13:33:06;20.30;99.90
17128;DHT22;8679;50.842;4.322;2022-10-16T13:35:35;20.50;99.90
17128;DHT22;8679;50.842;4.322;2022-10-16T13:38:17;20.60;99.90
17128;DHT22;8679;50.842;4.322;2022-10-16T13:40:57;20.70;99.90
17128;DHT22;8679;50.842;4.322;2022-10-16T13:43:40;20.70;99.90
17128;DHT22;8679;50.842;4.322;2022-10-16T13:46:21;20.50;99.90
17128;DHT22;8679;50.842;4.322;2022-10-16T13:49:03;20.40;99.90
17128;DHT22;8679;50.842;4.322;2022-10-16T13:51:31;20.30;99.90
17128;DHT22;8679;50.842;4.322;2022-10-16T13:53:57;20.30;99.90
17128;DHT22;8679;50.842;4.322;2022-10-16T13:56:27;20.20;99.90
17128;DHT22;8679;50.842;4.322;2022-10-16T13:59:04;20.20;99.90
17128;DHT22;8679;50.842;4.322;2022-10-16T14:01:34;20.20;99.90
17128;DHT22;8679;50.842;4.322;2022-10-16T14:04:05;20.20;99.90
17128;DHT22;8679;50.842;4.322;2022-10-16T14:06:33;20.30;99.90
17128;DHT22;8679;50.842;4.322;2022-10-16T14:09:06;20.10;99.90
17128;DHT22;8679;50.842;4.322;2022-10-16T14:11:33;19.90;99.90
17128;DHT22;8679;50.842;4.322;2022-10-16T14:14:02;19.80;99.90
17128;DHT22;8679;50.842;4.322;2022-10-16T14:16:35;19.70;99.90
17128;DHT22;8679;50.842;4.322;2022-10-16T14:19:04;19.70;99.90
17128;DHT22;8679;50.842;4.322;2022-10-16T14:21:35;19.70;99.90
17128;DHT22;8679;50.842;4.322;2022-10-16T14:24:11;19.70;99.90
17128;DHT22;8679;50.842;4.322;2022-10-16T14:26:42;19.70;99.90
17128;DHT22;8679;50.842;4.322;2022-10-16T14:29:14;19.60;99.90
17128;DHT22;8679;50.842;4.322;2022-10-16T14:31:40;19.60;99.90
17128;DHT22;8679;50.842;4.322;2022-10-16T14:34:28;19.60;99.90
17128;DHT22;8679;50.842;4.322;2022-10-16T14:36:57;19.70;99.90
17128;DHT22;8679;50.842;4.322;2022-10-16T14:39:25;19.80;99.90
17128;DHT22;8679;50.842;4.322;2022-10-16T14:41:52;19.90;99.90
17128;DHT22;8679;50.842;4.322;2022-10-16T14:44:26;19.90;99.90
17128;DHT22;8679;50.842;4.322;2022-10-16T14:46:53;20.00;99.90
17128;DHT22;8679;50.842;4.322;2022-10-16T14:49:20;20.10;99.90
17128;DHT22;8679;50.842;4.322;2022-10-16T14:51:47;20.10;99.90
17128;DHT22;8679;50.842;4.322;2022-10-16T14:54:15;20.10;99.90
17128;DHT22;8679;50.842;4.322;2022-10-16T14:56:56;20.10;99.90
17128;DHT22;8679;50.842;4.322;2022-10-16T14:59:34;20.20;99.90
17128;DHT22;8679;50.842;4.322;2022-10-16T15:04:53;20.20;99.90
17128;DHT22;8679;50.842;4.322;2022-10-16T15:07:19;20.10;99.90
17128;DHT22;8679;50.842;4.322;2022-10-16T15:09:45;20.00;99.90
17128;DHT22;8679;50.842;4.322;2022-10-16T15:12:10;20.10;99.90
17128;DHT22;8679;50.842;4.322;2022-10-16T15:14:36;20.00;99.90
17128;DHT22;8679;50.842;4.322;2022-10-16T15:17:02;19.90;99.90
17128;DHT22;8679;50.842;4.322;2022-10-16T15:19:29;19.80;99.90
17128;DHT22;8679;50.842;4.322;2022-10-16T15:21:54;19.80;99.90
17128;DHT22;8679;50.842;4.322;2022-10-16T15:24:20;19.70;99.90
17128;DHT22;8679;50.842;4.322;2022-10-16T15:26:46;19.70;99.90
17128;DHT22;8679;50.842;4.322;2022-10-16T15:29:12;19.60;99.90
17128;DHT22;8679;50.842;4.322;2022-10-16T15:31:38;19.50;99.90
17128;DHT22;8679;50.842;4.322;2022-10-16T15:34:04;19.40;99.90
17128;DHT22;8679;50.842;4.322;2022-10-16T15:36:33;19.30;99.90
17128;DHT22;8679;50.842;4.322;2022-10-16T15:39:11;19.10;99.90
17128;DHT22;8679;50.842;4.322;2022-10-16T15:41:37;19.10;99.90
17128;DHT22;8679;50.842;4.322;2022-10-16T15:44:03;19.00;99.90
17128;DHT22;8679;50.842;4.322;2022-10-16T15:46:29;18.90;99.90
17128;DHT22;8679;50.842;4.322;2022-10-16T15:48:57;18.80;99.90
17128;DHT22;8679;50.842;4.322;2022-10-16T15:51:24;18.80;99.90
17128;DHT22;8679;50.842;4.322;2022-10-16T15:53:50;18.80;99.90
17128;DHT22;8679;50.842;4.322;2022-10-16T15:56:17;18.70;99.90
17128;DHT22;8679;50.842;4.322;2022-10-16T15:58:43;18.70;99.90
17128;DHT22;8679;50.842;4.322;2022-10-16T16:01:09;18.60;99.90
17128;DHT22;8679;50.842;4.322;2022-10-16T16:03:36;18.60;99.90
17128;DHT22;8679;50.842;4.322;2022-10-16T16:06:05;18.50;99.90
17128;DHT22;8679;50.842;4.322;2022-10-16T16:08:32;18.50;99.90
17128;DHT22;8679;50.842;4.322;2022-10-16T16:11:09;18.40;99.90
17128;DHT22;8679;50.842;4.322;2022-10-16T16:13:36;18.40;99.90
17128;DHT22;8679;50.842;4.322;2022-10-16T16:16:12;18.40;99.90
17128;DHT22;8679;50.842;4.322;2022-10-16T16:18:39;18.30;99.90
17128;DHT22;8679;50.842;4.322;2022-10-16T16:21:05;18.30;99.90
17128;DHT22;8679;50.842;4.322;2022-10-16T16:23:31;18.30;99.90
17128;DHT22;8679;50.842;4.322;2022-10-16T16:26:14;18.30;99.90
17128;DHT22;8679;50.842;4.322;2022-10-16T16:28:41;18.30;99.90
17128;DHT22;8679;50.842;4.322;2022-10-16T16:31:08;18.30;99.90
17128;DHT22;8679;50.842;4.322;2022-10-16T16:33:34;18.20;99.90
17128;DHT22;8679;50.842;4.322;2022-10-16T16:36:00;18.20;99.90
17128;DHT22;8679;50.842;4.322;2022-10-16T16:38:26;18.10;99.90
17128;DHT22;8679;50.842;4.322;2022-10-16T16:40:52;18.10;99.90
17128;DHT22;8679;50.842;4.322;2022-10-16T16:43:19;18.10;99.90
17128;DHT22;8679;50.842;4.322;2022-10-16T16:45:45;18.00;99.90
17128;DHT22;8679;50.842;4.322;2022-10-16T16:48:10;18.00;99.90
17128;DHT22;8679;50.842;4.322;2022-10-16T16:50:36;18.00;99.90
17128;DHT22;8679;50.842;4.322;2022-10-16T16:53:02;18.00;99.90
17128;DHT22;8679;50.842;4.322;2022-10-16T16:55:28;18.00;99.90
17128;DHT22;8679;50.842;4.322;2022-10-16T16:57:53;18.00;99.90
17128;DHT22;8679;50.842;4.322;2022-10-16T17:00:19;18.00;99.90
17128;DHT22;8679;50.842;4.322;2022-10-16T17:02:48;18.10;99.90
17128;DHT22;8679;50.842;4.322;2022-10-16T17:05:14;18.20;99.90
17128;DHT22;8679;50.842;4.322;2022-10-16T17:07:40;18.20;99.90
17128;DHT22;8679;50.842;4.322;2022-10-16T17:10:07;18.10;99.90
17128;DHT22;8679;50.842;4.322;2022-10-16T17:12:33;18.00;99.90
17128;DHT22;8679;50.842;4.322;2022-10-16T17:14:58;17.90;99.90
17128;DHT22;8679;50.842;4.322;2022-10-16T17:17:24;17.80;99.90
17128;DHT22;8679;50.842;4.322;2022-10-16T17:19:51;17.70;99.90
17128;DHT22;8679;50.842;4.322;2022-10-16T17:22:17;17.60;99.90
17128;DHT22;8679;50.842;4.322;2022-10-16T17:24:43;17.50;99.90
17128;DHT22;8679;50.842;4.322;2022-10-16T17:27:09;17.50;99.90
17128;DHT22;8679;50.842;4.322;2022-10-16T17:29:37;17.40;99.90
17128;DHT22;8679;50.842;4.322;2022-10-16T17:32:03;17.30;99.90
17128;DHT22;8679;50.842;4.322;2022-10-16T17:34:28;17.30;99.90
17128;DHT22;8679;50.842;4.322;2022-10-16T17:36:54;17.30;99.90
17128;DHT22;8679;50.842;4.322;2022-10-16T17:39:20;17.30;99.90
17128;DHT22;8679;50.842;4.322;2022-10-16T17:41:47;17.20;99.90
17128;DHT22;8679;50.842;4.322;2022-10-16T17:44:12;17.20;99.90
17128;DHT22;8679;50.842;4.322;2022-10-16T17:46:45;17.10;99.90
17128;DHT22;8679;50.842;4.322;2022-10-16T17:49:12;17.10;99.90
17128;DHT22;8679;50.842;4.322;2022-10-16T17:51:37;16.90;99.90
17128;DHT22;8679;50.842;4.322;2022-10-16T17:54:03;16.90;99.90
17128;DHT22;8679;50.842;4.322;2022-10-16T17:56:29;16.90;99.90
17128;DHT22;8679;50.842;4.322;2022-10-16T17:58:58;16.90;99.90